sensor_id;sensor_type;location;lat;lon;timestamp;pressure;altitude;pressure_sealevel;temperature;humidity
49841;BME280;35738;49.890;5.930;2023-06-26T00:02:16;95695.88;;;18.98;100.00
49841;BME280;35738;49.890;5.930;2023-06-26T00:04:43;95695.44;;;18.89;100.00
49841;BME280;35738;49.890;5.930;2023-06-26T00:07:10;95689.81;;;18.82;100.00
49841;BME280;35738;49.890;5.930;2023-06-26T00:09:38;95683.03;;;18.83;100.00
49841;BME280;35738;49.890;5.930;2023-06-26T00:12:05;95694.31;;;19.00;100.00
49841;BME280;35738;49.890;5.930;2023-06-26T00:14:32;95689.59;;;19.12;100.00
49841;BME280;35738;49.890;5.930;2023-06-26T00:16:58;95682.06;;;19.19;100.00
49841;BME280;35738;49.890;5.930;2023-06-26T00:19:31;95687.25;;;19.21;100.00
49841;BME280;35738;49.890;5.930;2023-06-26T00:21:58;95684.88;;;19.23;100.00
49841;BME280;35738;49.890;5.930;2023-06-26T00:24:24;95693.25;;;19.23;100.00
49841;BME280;35738;49.890;5.930;2023-06-26T00:26:51;95692.03;;;19.17;100.00
49841;BME280;35738;49.890;5.930;2023-06-26T00:29:17;95691.53;;;19.04;100.00
49841;BME280;35738;49.890;5.930;2023-06-26T00:31:44;95687.13;;;18.99;100.00
49841;BME280;35738;49.890;5.930;2023-06-26T00:34:11;95686.38;;;19.02;100.00
49841;BME280;35738;49.890;5.930;2023-06-26T00:36:37;95682.00;;;19.05;100.00
49841;BME280;35738;49.890;5.930;2023-06-26T00:39:04;95674.44;;;19.05;100.00
49841;BME280;35738;49.890;5.930;2023-06-26T00:41:31;95687.25;;;19.21;100.00
49841;BME280;35738;49.890;5.930;2023-06-26T00:43:58;95688.09;;;19.28;100.00
49841;BME280;35738;49.890;5.930;2023-06-26T00:46:25;95684.13;;;19.29;100.00
49841;BME280;35738;49.890;5.930;2023-06-26T00:48:52;95683.69;;;19.20;100.00
49841;BME280;35738;49.890;5.930;2023-06-26T00:51:20;95678.84;;;19.10;100.00
49841;BME280;35738;49.890;5.930;2023-06-26T00:53:48;95687.16;;;19.03;100.00
49841;BME280;35738;49.890;5.930;2023-06-26T00:56:15;95687.88;;;18.93;100.00
49841;BME280;35738;49.890;5.930;2023-06-26T00:58:41;95674.31;;;18.88;100.00
49841;BME280;35738;49.890;5.930;2023-06-26T01:01:08;95682.22;;;18.79;100.00
49841;BME280;35738;49.890;5.930;2023-06-26T01:03:35;95675.78;;;18.71;100.00
49841;BME280;35738;49.890;5.930;2023-06-26T01:06:06;95682.13;;;18.64;100.00
49841;BME280;35738;49.890;5.930;2023-06-26T01:08:33;95682.78;;;18.54;100.00
49841;BME280;35738;49.890;5.930;2023-06-26T01:11:00;95679.50;;;18.45;100.00
49841;BME280;35738;49.890;5.930;2023-06-26T01:13:28;95679.50;;;18.45;100.00
49841;BME280;35738;49.890;5.930;2023-06-26T01:15:57;95685.44;;;18.40;100.00
49841;BME280;35738;49.890;5.930;2023-06-26T01:18:25;95677.78;;;18.30;100.00
49841;BME280;35738;49.890;5.930;2023-06-26T01:20:53;95684.16;;;18.30;100.00
49841;BME280;35738;49.890;5.930;2023-06-26T01:26:22;95681.34;;;18.27;100.00
49841;BME280;35738;49.890;5.930;2023-06-26T01:28:51;95682.19;;;18.31;100.00
49841;BME280;35738;49.890;5.930;2023-06-26T01:31:19;95682.66;;;18.40;100.00
49841;BME280;35738;49.890;5.930;2023-06-26T01:33:46;95682.78;;;18.54;100.00
49841;BME280;35738;49.890;5.930;2023-06-26T01:36:13;95679.75;;;18.66;100.00
49841;BME280;35738;49.890;5.930;2023-06-26T01:38:40;95687.78;;;18.79;100.00
49841;BME280;35738;49.890;5.930;2023-06-26T01:41:06;95676.69;;;18.86;100.00
49841;BME280;35738;49.890;5.930;2023-06-26T01:46:40;95682.84;;;19.13;100.00
49841;BME280;35738;49.890;5.930;2023-06-26T01:49:15;95684.91;;;19.30;100.00
49841;BME280;35738;49.890;5.930;2023-06-26T01:51:53;95697.22;;;18.63;100.00
49841;BME280;35738;49.890;5.930;2023-06-26T01:54:23;95722.41;;;17.36;100.00
49841;BME280;35738;49.890;5.930;2023-06-26T01:56:52;95746.44;;;16.72;100.00
49841;BME280;35738;49.890;5.930;2023-06-26T01:59:20;95768.72;;;16.34;100.00
49841;BME280;35738;49.890;5.930;2023-06-26T02:01:48;95774.88;;;16.24;100.00
49841;BME280;35738;49.890;5.930;2023-06-26T02:04:15;95788.75;;;16.24;100.00
49841;BME280;35738;49.890;5.930;2023-06-26T02:06:42;95786.13;;;16.31;100.00
49841;BME280;35738;49.890;5.930;2023-06-26T02:09:08;95768.47;;;16.39;100.00
49841;BME280;35738;49.890;5.930;2023-06-26T02:11:35;95763.84;;;16.46;100.00
49841;BME280;35738;49.890;5.930;2023-06-26T02:14:02;95759.56;;;16.52;100.00
49841;BME280;35738;49.890;5.930;2023-06-26T02:16:29;95752.38;;;16.71;100.00
49841;BME280;35738;49.890;5.930;2023-06-26T02:18:56;95742.56;;;16.77;100.00
49841;BME280;35738;49.890;5.930;2023-06-26T02:21:24;95743.56;;;16.92;100.00
49841;BME280;35738;49.890;5.930;2023-06-26T02:23:52;95749.19;;;16.95;100.00
49841;BME280;35738;49.890;5.930;2023-06-26T02:26:19;95749.72;;;17.04;100.00
49841;BME280;35738;49.890;5.930;2023-06-26T02:28:47;95744.22;;;17.08;100.00
49841;BME280;35738;49.890;5.930;2023-06-26T02:31:13;95757.75;;;17.09;100.00
49841;BME280;35738;49.890;5.930;2023-06-26T02:33:41;95747.78;;;17.08;100.00
49841;BME280;35738;49.890;5.930;2023-06-26T02:36:08;95756.44;;;17.03;100.00
49841;BME280;35738;49.890;5.930;2023-06-26T02:38:34;95769.84;;;16.98;100.00
49841;BME280;35738;49.890;5.930;2023-06-26T02:41:01;95759.88;;;16.93;100.00
49841;BME280;35738;49.890;5.930;2023-06-26T02:43:27;95766.06;;;16.83;100.00
49841;BME280;35738;49.890;5.930;2023-06-26T02:45:54;95767.06;;;16.71;100.00
49841;BME280;35738;49.890;5.930;2023-06-26T02:48:21;95775.25;;;16.64;100.00
49841;BME280;35738;49.890;5.930;2023-06-26T02:50:47;95776.72;;;16.58;100.00
49841;BME280;35738;49.890;5.930;2023-06-26T02:53:14;95782.72;;;16.60;100.00
49841;BME280;35738;49.890;5.930;2023-06-26T02:55:40;95794.69;;;16.64;100.00
49841;BME280;35738;49.890;5.930;2023-06-26T02:58:07;95790.00;;;16.68;100.00
49841;BME280;35738;49.890;5.930;2023-06-26T03:00:34;95790.00;;;16.68;100.00
49841;BME280;35738;49.890;5.930;2023-06-26T03:03:01;95791.09;;;16.64;100.00
49841;BME280;35738;49.890;5.930;2023-06-26T03:05:27;95803.69;;;16.58;100.00
49841;BME280;35738;49.890;5.930;2023-06-26T03:07:54;95811.59;;;16.56;100.00
49841;BME280;35738;49.890;5.930;2023-06-26T03:10:20;95814.66;;;16.50;100.00
49841;BME280;35738;49.890;5.930;2023-06-26T03:12:47;95829.59;;;16.42;100.00
49841;BME280;35738;49.890;5.930;2023-06-26T03:15:13;95833.03;;;16.36;100.00
49841;BME280;35738;49.890;5.930;2023-06-26T03:17:40;95840.81;;;16.30;100.00
49841;BME280;35738;49.890;5.930;2023-06-26T03:20:07;95842.22;;;16.20;100.00
49841;BME280;35738;49.890;5.930;2023-06-26T03:22:34;95851.56;;;16.12;100.00
49841;BME280;35738;49.890;5.930;2023-06-26T03:25:05;95843.97;;;16.09;100.00
49841;BME280;35738;49.890;5.930;2023-06-26T03:27:31;95853.03;;;16.06;100.00
49841;BME280;35738;49.890;5.930;2023-06-26T03:29:58;95850.25;;;16.06;100.00
49841;BME280;35738;49.890;5.930;2023-06-26T03:32:24;95851.66;;;15.97;100.00
49841;BME280;35738;49.890;5.930;2023-06-26T03:34:51;95855.16;;;15.94;100.00
49841;BME280;35738;49.890;5.930;2023-06-26T03:37:19;95850.41;;;15.94;100.00
49841;BME280;35738;49.890;5.930;2023-06-26T03:39:46;95846.31;;;15.88;100.00
49841;BME280;35738;49.890;5.930;2023-06-26T03:42:13;95848.59;;;15.82;100.00
49841;BME280;35738;49.890;5.930;2023-06-26T03:44:39;95859.97;;;15.77;100.00
49841;BME280;35738;49.890;5.930;2023-06-26T03:47:06;95863.03;;;15.72;100.00
49841;BME280;35738;49.890;5.930;2023-06-26T03:49:35;95857.41;;;15.69;100.00
49841;BME280;35738;49.890;5.930;2023-06-26T03:52:01;95860.34;;;15.60;100.00
49841;BME280;35738;49.890;5.930;2023-06-26T03:54:28;95870.19;;;15.57;100.00
49841;BME280;35738;49.890;5.930;2023-06-26T03:56:54;95868.22;;;15.58;100.00
49841;BME280;35738;49.890;5.930;2023-06-26T03:59:21;95877.59;;;15.53;100.00
49841;BME280;35738;49.890;5.930;2023-06-26T04:01:47;95876.34;;;15.51;100.00
49841;BME280;35738;49.890;5.930;2023-06-26T04:04:17;95872.03;;;15.53;100.00
49841;BME280;35738;49.890;5.930;2023-06-26T04:06:44;95872.50;;;15.55;100.00
49841;BME280;35738;49.890;5.930;2023-06-26T04:09:11;95873.84;;;15.46;100.00
49841;BME280;35738;49.890;5.930;2023-06-26T04:11:37;95871.88;;;15.46;100.00
49841;BME280;35738;49.890;5.930;2023-06-26T04:14:04;95879.31;;;15.42;100.00
49841;BME280;35738;49.890;5.930;2023-06-26T04:16:32;95888.88;;;15.45;100.00
49841;BME280;35738;49.890;5.930;2023-06-26T04:18:58;95882.53;;;15.44;100.00
49841;BME280;35738;49.890;5.930;2023-06-26T04:21:25;95897.09;;;15.41;100.00
49841;BME280;35738;49.890;5.930;2023-06-26T04:23:53;95893.53;;;15.41;100.00
49841;BME280;35738;49.890;5.930;2023-06-26T04:26:19;95896.66;;;15.39;100.00
49841;BME280;35738;49.890;5.930;2023-06-26T04:28:47;95898.28;;;15.40;100.00
49841;BME280;35738;49.890;5.930;2023-06-26T04:31:14;95906.94;;;15.39;100.00
49841;BME280;35738;49.890;5.930;2023-06-26T04:33:41;95914.91;;;15.40;100.00
49841;BME280;35738;49.890;5.930;2023-06-26T04:36:11;95907.03;;;15.42;100.00
49841;BME280;35738;49.890;5.930;2023-06-26T04:38:38;95903.00;;;15.40;100.00
49841;BME280;35738;49.890;5.930;2023-06-26T04:41:05;95913.09;;;15.48;100.00
49841;BME280;35738;49.890;5.930;2023-06-26T04:43:32;95908.09;;;15.53;100.00
49841;BME280;35738;49.890;5.930;2023-06-26T04:45:59;95899.25;;;15.64;100.00
49841;BME280;35738;49.890;5.930;2023-06-26T04:48:28;95890.38;;;15.74;100.00
49841;BME280;35738;49.890;5.930;2023-06-26T04:50:55;95884.34;;;15.87;100.00
49841;BME280;35738;49.890;5.930;2023-06-26T04:53:22;95869.38;;;15.92;100.00
49841;BME280;35738;49.890;5.930;2023-06-26T04:55:50;95875.81;;;15.96;100.00
49841;BME280;35738;49.890;5.930;2023-06-26T04:58:18;95869.03;;;15.94;100.00
49841;BME280;35738;49.890;5.930;2023-06-26T05:00:45;95867.78;;;15.91;100.00
49841;BME280;35738;49.890;5.930;2023-06-26T05:03:13;95869.69;;;15.87;100.00
49841;BME280;35738;49.890;5.930;2023-06-26T05:05:40;95874.06;;;15.88;100.00
49841;BME280;35738;49.890;5.930;2023-06-26T05:08:17;95869.97;;;16.01;100.00
49841;BME280;35738;49.890;5.930;2023-06-26T05:10:45;95875.97;;;16.03;100.00
49841;BME280;35738;49.890;5.930;2023-06-26T05:13:12;95875.81;;;15.96;100.00
49841;BME280;35738;49.890;5.930;2023-06-26T05:15:41;95870.56;;;15.91;100.00
49841;BME280;35738;49.890;5.930;2023-06-26T05:18:08;95887.31;;;15.79;100.00
49841;BME280;35738;49.890;5.930;2023-06-26T05:20:36;95888.41;;;15.74;100.00
49841;BME280;35738;49.890;5.930;2023-06-26T05:23:04;95889.94;;;15.72;100.00
49841;BME280;35738;49.890;5.930;2023-06-26T05:25:31;95894.16;;;15.66;100.00
49841;BME280;35738;49.890;5.930;2023-06-26T05:27:58;95909.19;;;15.65;100.00
49841;BME280;35738;49.890;5.930;2023-06-26T05:30:27;95912.22;;;15.95;100.00
49841;BME280;35738;49.890;5.930;2023-06-26T05:32:54;95881.00;;;16.98;100.00
49841;BME280;35738;49.890;5.930;2023-06-26T05:35:23;95858.50;;;17.82;100.00
49841;BME280;35738;49.890;5.930;2023-06-26T05:37:50;95836.06;;;17.68;100.00
49841;BME280;35738;49.890;5.930;2023-06-26T05:40:18;95843.81;;;17.06;100.00
49841;BME280;35738;49.890;5.930;2023-06-26T05:42:45;95845.75;;;16.79;100.00
49841;BME280;35738;49.890;5.930;2023-06-26T05:45:12;95852.66;;;16.66;100.00
49841;BME280;35738;49.890;5.930;2023-06-26T05:47:39;95841.97;;;17.13;100.00
49841;BME280;35738;49.890;5.930;2023-06-26T05:50:07;95847.16;;;17.15;100.00
49841;BME280;35738;49.890;5.930;2023-06-26T05:52:34;95851.81;;;17.60;100.00
49841;BME280;35738;49.890;5.930;2023-06-26T05:55:02;95837.31;;;18.34;100.00
49841;BME280;35738;49.890;5.930;2023-06-26T05:57:30;95824.19;;;18.64;100.00
49841;BME280;35738;49.890;5.930;2023-06-26T05:59:57;95819.03;;;18.66;100.00
49841;BME280;35738;49.890;5.930;2023-06-26T06:02:25;95830.56;;;19.09;100.00
49841;BME280;35738;49.890;5.930;2023-06-26T06:04:51;95827.50;;;19.28;100.00
49841;BME280;35738;49.890;5.930;2023-06-26T06:07:18;95835.56;;;19.33;100.00
49841;BME280;35738;49.890;5.930;2023-06-26T06:09:44;95835.44;;;19.71;100.00
49841;BME280;35738;49.890;5.930;2023-06-26T06:12:11;95830.38;;;19.97;100.00
49841;BME280;35738;49.890;5.930;2023-06-26T06:14:45;95832.13;;;20.27;100.00
49841;BME280;35738;49.890;5.930;2023-06-26T06:17:11;95840.22;;;19.74;100.00
49841;BME280;35738;49.890;5.930;2023-06-26T06:19:38;95833.25;;;20.08;100.00
49841;BME280;35738;49.890;5.930;2023-06-26T06:22:04;95826.34;;;19.84;100.00
49841;BME280;35738;49.890;5.930;2023-06-26T06:24:33;95822.78;;;19.91;100.00
49841;BME280;35738;49.890;5.930;2023-06-26T06:27:00;95831.78;;;19.59;100.00
49841;BME280;35738;49.890;5.930;2023-06-26T06:29:26;95826.91;;;20.15;100.00
49841;BME280;35738;49.890;5.930;2023-06-26T06:31:56;95834.66;;;20.53;100.00
49841;BME280;35738;49.890;5.930;2023-06-26T06:34:23;95829.94;;;20.89;100.00
49841;BME280;35738;49.890;5.930;2023-06-26T06:36:49;95834.75;;;20.89;100.00
49841;BME280;35738;49.890;5.930;2023-06-26T06:39:16;95837.94;;;20.91;100.00
49841;BME280;35738;49.890;5.930;2023-06-26T06:41:43;95845.84;;;20.68;100.00
49841;BME280;35738;49.890;5.930;2023-06-26T06:44:09;95843.56;;;21.16;100.00
49841;BME280;35738;49.890;5.930;2023-06-26T06:46:36;95847.53;;;21.04;100.00
49841;BME280;35738;49.890;5.930;2023-06-26T06:49:03;95855.94;;;21.18;100.00
49841;BME280;35738;49.890;5.930;2023-06-26T06:51:30;95860.31;;;20.91;100.00
49841;BME280;35738;49.890;5.930;2023-06-26T06:53:57;95869.78;;;20.58;100.00
49841;BME280;35738;49.890;5.930;2023-06-26T06:56:23;95871.06;;;20.82;100.00
49841;BME280;35738;49.890;5.930;2023-06-26T06:58:50;95865.81;;;20.70;100.00
49841;BME280;35738;49.890;5.930;2023-06-26T07:01:16;95872.16;;;20.49;100.00
49841;BME280;35738;49.890;5.930;2023-06-26T07:03:43;95871.72;;;20.43;100.00
49841;BME280;35738;49.890;5.930;2023-06-26T07:06:10;95878.59;;;20.63;100.00
49841;BME280;35738;49.890;5.930;2023-06-26T07:08:36;95874.63;;;20.75;100.00
49841;BME280;35738;49.890;5.930;2023-06-26T07:11:04;95884.22;;;20.78;100.00
49841;BME280;35738;49.890;5.930;2023-06-26T07:13:30;95887.75;;;20.57;100.00
49841;BME280;35738;49.890;5.930;2023-06-26T07:15:57;95878.56;;;20.56;100.00
49841;BME280;35738;49.890;5.930;2023-06-26T07:18:24;95891.75;;;20.63;100.00
49841;BME280;35738;49.890;5.930;2023-06-26T07:20:56;95893.00;;;20.80;100.00
49841;BME280;35738;49.890;5.930;2023-06-26T07:23:24;95891.88;;;21.02;100.00
49841;BME280;35738;49.890;5.930;2023-06-26T07:25:51;95887.03;;;20.81;100.00
49841;BME280;35738;49.890;5.930;2023-06-26T07:28:17;95894.91;;;20.54;100.00
49841;BME280;35738;49.890;5.930;2023-06-26T07:30:44;95889.38;;;20.69;100.00
49841;BME280;35738;49.890;5.930;2023-06-26T07:33:10;95902.28;;;20.11;100.00
49841;BME280;35738;49.890;5.930;2023-06-26T07:35:37;95895.34;;;20.63;100.00
49841;BME280;35738;49.890;5.930;2023-06-26T07:38:04;95912.16;;;20.74;100.00
49841;BME280;35738;49.890;5.930;2023-06-26T07:40:31;95909.50;;;20.23;100.00
49841;BME280;35738;49.890;5.930;2023-06-26T07:42:57;95908.53;;;19.94;100.00
49841;BME280;35738;49.890;5.930;2023-06-26T07:45:24;95915.13;;;19.68;100.00
49841;BME280;35738;49.890;5.930;2023-06-26T07:47:52;95919.06;;;19.19;100.00
49841;BME280;35738;49.890;5.930;2023-06-26T07:50:19;95926.59;;;19.15;100.00
49841;BME280;35738;49.890;5.930;2023-06-26T07:52:49;95930.84;;;19.02;100.00
49841;BME280;35738;49.890;5.930;2023-06-26T07:55:16;95938.47;;;18.71;100.00
49841;BME280;35738;49.890;5.930;2023-06-26T07:57:42;95944.63;;;18.88;100.00
49841;BME280;35738;49.890;5.930;2023-06-26T08:00:09;95941.66;;;19.11;100.00
49841;BME280;35738;49.890;5.930;2023-06-26T08:02:36;95930.63;;;19.21;100.00
49841;BME280;35738;49.890;5.930;2023-06-26T08:05:03;95935.88;;;18.89;100.00
49841;BME280;35738;49.890;5.930;2023-06-26T08:07:30;95942.94;;;18.80;100.00
49841;BME280;35738;49.890;5.930;2023-06-26T08:09:58;95949.44;;;18.91;100.00
49841;BME280;35738;49.890;5.930;2023-06-26T08:12:25;95945.81;;;18.87;100.00
49841;BME280;35738;49.890;5.930;2023-06-26T08:14:52;95941.00;;;18.84;100.00
49841;BME280;35738;49.890;5.930;2023-06-26T08:17:19;95947.25;;;18.73;100.00
49841;BME280;35738;49.890;5.930;2023-06-26T08:19:46;95952.28;;;18.34;100.00
49841;BME280;35738;49.890;5.930;2023-06-26T08:22:12;95958.41;;;18.47;100.00
49841;BME280;35738;49.890;5.930;2023-06-26T08:24:39;95954.38;;;18.71;100.00
49841;BME280;35738;49.890;5.930;2023-06-26T08:27:06;95958.78;;;18.72;100.00
49841;BME280;35738;49.890;5.930;2023-06-26T08:29:34;95961.59;;;18.76;100.00
49841;BME280;35738;49.890;5.930;2023-06-26T08:32:01;95967.75;;;18.92;100.00
49841;BME280;35738;49.890;5.930;2023-06-26T08:34:28;95956.19;;;19.30;100.00
49841;BME280;35738;49.890;5.930;2023-06-26T08:36:55;95965.47;;;18.67;100.00
49841;BME280;35738;49.890;5.930;2023-06-26T08:39:21;95966.91;;;18.58;100.00
49841;BME280;35738;49.890;5.930;2023-06-26T08:41:48;95953.41;;;18.30;100.00
49841;BME280;35738;49.890;5.930;2023-06-26T08:44:17;95951.47;;;18.34;100.00
49841;BME280;35738;49.890;5.930;2023-06-26T08:46:44;95957.28;;;18.52;100.00
49841;BME280;35738;49.890;5.930;2023-06-26T08:49:25;95963.06;;;18.66;100.00
49841;BME280;35738;49.890;5.930;2023-06-26T08:51:59;95957.13;;;18.67;100.00
49841;BME280;35738;49.890;5.930;2023-06-26T08:54:36;95960.16;;;18.89;100.00
49841;BME280;35738;49.890;5.930;2023-06-26T08:57:07;95950.88;;;18.78;100.00
49841;BME280;35738;49.890;5.930;2023-06-26T08:59:34;95948.22;;;18.58;100.00
49841;BME280;35738;49.890;5.930;2023-06-26T09:02:01;95946.59;;;18.57;100.00
49841;BME280;35738;49.890;5.930;2023-06-26T09:04:30;95951.97;;;18.69;100.00
49841;BME280;35738;49.890;5.930;2023-06-26T09:06:57;95950.56;;;18.56;100.00
49841;BME280;35738;49.890;5.930;2023-06-26T09:09:24;95937.50;;;18.60;100.00
49841;BME280;35738;49.890;5.930;2023-06-26T09:11:50;95926.22;;;18.50;100.00
49841;BME280;35738;49.890;5.930;2023-06-26T09:14:18;95936.16;;;18.77;100.00
49841;BME280;35738;49.890;5.930;2023-06-26T09:16:45;95938.44;;;18.68;100.00
49841;BME280;35738;49.890;5.930;2023-06-26T09:19:12;95941.28;;;18.45;100.00
49841;BME280;35738;49.890;5.930;2023-06-26T09:21:43;95937.78;;;18.52;100.00
49841;BME280;35738;49.890;5.930;2023-06-26T09:24:10;95955.03;;;18.61;100.00
49841;BME280;35738;49.890;5.930;2023-06-26T09:26:37;95953.50;;;18.63;100.00
49841;BME280;35738;49.890;5.930;2023-06-26T09:29:05;95948.06;;;18.74;100.00
49841;BME280;35738;49.890;5.930;2023-06-26T09:31:33;95951.41;;;18.90;100.00
49841;BME280;35738;49.890;5.930;2023-06-26T09:34:08;95945.25;;;19.11;100.00
49841;BME280;35738;49.890;5.930;2023-06-26T09:36:34;95960.75;;;19.09;100.00
49841;BME280;35738;49.890;5.930;2023-06-26T09:39:07;95951.78;;;19.26;100.00
49841;BME280;35738;49.890;5.930;2023-06-26T09:41:40;95950.09;;;19.18;100.00
49841;BME280;35738;49.890;5.930;2023-06-26T09:44:11;95939.91;;;19.32;100.00
49841;BME280;35738;49.890;5.930;2023-06-26T09:46:38;95941.88;;;19.73;100.00
49841;BME280;35738;49.890;5.930;2023-06-26T09:49:07;95942.19;;;19.60;100.00
49841;BME280;35738;49.890;5.930;2023-06-26T09:51:35;95930.50;;;19.51;100.00
49841;BME280;35738;49.890;5.930;2023-06-26T09:54:03;95942.34;;;19.38;100.00
49841;BME280;35738;49.890;5.930;2023-06-26T09:56:31;95941.94;;;19.35;100.00
49841;BME280;35738;49.890;5.930;2023-06-26T09:59:00;95949.03;;;19.70;100.00
49841;BME280;35738;49.890;5.930;2023-06-26T10:01:28;95944.88;;;20.05;100.00
49841;BME280;35738;49.890;5.930;2023-06-26T10:03:55;95954.19;;;20.23;100.00
49841;BME280;35738;49.890;5.930;2023-06-26T10:06:33;95959.66;;;20.05;100.00
49841;BME280;35738;49.890;5.930;2023-06-26T10:09:02;95960.34;;;19.91;100.00
49841;BME280;35738;49.890;5.930;2023-06-26T10:11:41;95966.00;;;20.02;100.00
49841;BME280;35738;49.890;5.930;2023-06-26T10:14:11;95962.16;;;19.66;100.00
49841;BME280;35738;49.890;5.930;2023-06-26T10:16:44;95975.72;;;19.67;100.00
49841;BME280;35738;49.890;5.930;2023-06-26T10:19:14;95948.94;;;19.59;100.00
49841;BME280;35738;49.890;5.930;2023-06-26T10:21:43;95968.63;;;19.77;100.00
49841;BME280;35738;49.890;5.930;2023-06-26T10:24:11;95969.50;;;19.88;100.00
49841;BME280;35738;49.890;5.930;2023-06-26T10:26:44;95979.81;;;19.81;100.00
49841;BME280;35738;49.890;5.930;2023-06-26T10:29:13;95985.72;;;19.72;100.00
49841;BME280;35738;49.890;5.930;2023-06-26T10:31:45;95991.03;;;19.47;100.00
49841;BME280;35738;49.890;5.930;2023-06-26T10:34:13;95988.81;;;19.60;100.00
49841;BME280;35738;49.890;5.930;2023-06-26T10:36:40;95997.00;;;19.46;100.00
49841;BME280;35738;49.890;5.930;2023-06-26T10:39:07;95994.38;;;19.23;100.00
49841;BME280;35738;49.890;5.930;2023-06-26T10:41:41;95985.41;;;19.03;100.00
49841;BME280;35738;49.890;5.930;2023-06-26T10:44:26;95996.19;;;19.08;100.00
49841;BME280;35738;49.890;5.930;2023-06-26T10:46:55;95990.03;;;18.92;100.00
49841;BME280;35738;49.890;5.930;2023-06-26T10:49:29;96002.22;;;19.14;100.00
49841;BME280;35738;49.890;5.930;2023-06-26T10:52:01;95999.81;;;19.46;100.00
49841;BME280;35738;49.890;5.930;2023-06-26T10:54:30;95996.41;;;19.63;100.00
49841;BME280;35738;49.890;5.930;2023-06-26T10:56:57;96001.25;;;19.70;100.00
49841;BME280;35738;49.890;5.930;2023-06-26T10:59:25;95996.63;;;19.91;100.00
49841;BME280;35738;49.890;5.930;2023-06-26T11:02:02;96004.38;;;20.09;100.00
49841;BME280;35738;49.890;5.930;2023-06-26T11:04:44;96006.59;;;19.89;100.00
49841;BME280;35738;49.890;5.930;2023-06-26T11:10:02;96005.19;;;19.65;100.00
49841;BME280;35738;49.890;5.930;2023-06-26T11:12:35;96005.47;;;19.53;100.00
49841;BME280;35738;49.890;5.930;2023-06-26T11:15:09;96006.91;;;19.80;100.00
49841;BME280;35738;49.890;5.930;2023-06-26T11:17:37;96014.53;;;19.87;100.00
49841;BME280;35738;49.890;5.930;2023-06-26T11:20:17;96007.22;;;20.16;100.00
49841;BME280;35738;49.890;5.930;2023-06-26T11:22:44;96023.13;;;20.08;100.00
49841;BME280;35738;49.890;5.930;2023-06-26T11:25:11;96027.09;;;20.07;100.00
49841;BME280;35738;49.890;5.930;2023-06-26T11:30:06;96023.88;;;19.61;100.00
49841;BME280;35738;49.890;5.930;2023-06-26T11:32:34;96026.78;;;19.72;100.00
49841;BME280;35738;49.890;5.930;2023-06-26T11:35:01;96024.47;;;19.81;100.00
49841;BME280;35738;49.890;5.930;2023-06-26T11:37:27;96033.56;;;19.74;100.00
49841;BME280;35738;49.890;5.930;2023-06-26T11:39:54;96014.84;;;19.75;100.00
49841;BME280;35738;49.890;5.930;2023-06-26T11:42:21;96025.06;;;19.60;100.00
49841;BME280;35738;49.890;5.930;2023-06-26T11:44:47;96022.38;;;19.71;100.00
49841;BME280;35738;49.890;5.930;2023-06-26T11:47:18;96030.09;;;19.88;100.00
49841;BME280;35738;49.890;5.930;2023-06-26T11:49:47;96019.16;;;20.13;100.00
49841;BME280;35738;49.890;5.930;2023-06-26T11:52:15;96025.44;;;20.54;100.00
49841;BME280;35738;49.890;5.930;2023-06-26T11:54:42;96025.09;;;20.66;100.00
49841;BME280;35738;49.890;5.930;2023-06-26T11:57:13;96026.47;;;20.97;100.00
49841;BME280;35738;49.890;5.930;2023-06-26T11:59:41;96038.06;;;20.37;100.00
49841;BME280;35738;49.890;5.930;2023-06-26T12:02:09;96031.19;;;20.24;100.00
49841;BME280;35738;49.890;5.930;2023-06-26T12:04:37;96034.47;;;20.33;100.00
49841;BME280;35738;49.890;5.930;2023-06-26T12:07:06;96037.75;;;20.42;100.00
49841;BME280;35738;49.890;5.930;2023-06-26T12:09:43;96027.84;;;20.55;100.00
49841;BME280;35738;49.890;5.930;2023-06-26T12:12:17;96031.13;;;20.72;100.00
49841;BME280;35738;49.890;5.930;2023-06-26T12:14:44;96033.00;;;20.50;100.00
49841;BME280;35738;49.890;5.930;2023-06-26T12:17:12;96037.06;;;20.63;100.00
49841;BME280;35738;49.890;5.930;2023-06-26T12:19:44;96027.91;;;20.70;100.00
49841;BME280;35738;49.890;5.930;2023-06-26T12:22:11;96037.50;;;20.72;100.00
49841;BME280;35738;49.890;5.930;2023-06-26T12:24:39;96040.88;;;21.06;100.00
49841;BME280;35738;49.890;5.930;2023-06-26T12:27:10;96038.75;;;20.78;100.00
49841;BME280;35738;49.890;5.930;2023-06-26T12:29:39;96040.81;;;20.85;100.00
49841;BME280;35738;49.890;5.930;2023-06-26T12:32:10;96055.22;;;20.98;100.00
49841;BME280;35738;49.890;5.930;2023-06-26T12:34:38;96045.88;;;20.69;100.00
49841;BME280;35738;49.890;5.930;2023-06-26T12:39:52;96036.09;;;21.07;100.00
49841;BME280;35738;49.890;5.930;2023-06-26T12:42:24;96029.03;;;21.38;100.00
49841;BME280;35738;49.890;5.930;2023-06-26T12:44:51;96037.50;;;21.70;100.00
49841;BME280;35738;49.890;5.930;2023-06-26T12:47:24;96037.72;;;21.18;100.00
49841;BME280;35738;49.890;5.930;2023-06-26T12:49:52;96044.59;;;21.32;100.00
49841;BME280;35738;49.890;5.930;2023-06-26T12:52:20;96041.69;;;21.10;100.00
49841;BME280;35738;49.890;5.930;2023-06-26T12:54:51;96050.22;;;21.42;100.00
49841;BME280;35738;49.890;5.930;2023-06-26T12:57:18;96053.44;;;21.48;100.00
49841;BME280;35738;49.890;5.930;2023-06-26T12:59:45;96058.28;;;21.62;100.00
49841;BME280;35738;49.890;5.930;2023-06-26T13:02:11;96058.25;;;21.54;100.00
49841;BME280;35738;49.890;5.930;2023-06-26T13:04:39;96051.28;;;21.09;100.00
49841;BME280;35738;49.890;5.930;2023-06-26T13:07:11;96041.09;;;20.73;100.00
49841;BME280;35738;49.890;5.930;2023-06-26T13:09:37;96047.28;;;21.07;100.00